createdAt,value
2018-12-22T00:00:44.673Z,994.21
2018-12-22T00:01:54.635Z,994.41
2018-12-22T00:03:04.574Z,994.2
2018-12-22T00:04:14.259Z,993.91
2018-12-22T00:05:23.703Z,994.12
2018-12-22T00:06:33.401Z,994.11
2018-12-22T00:07:42.856Z,994.12
2018-12-22T00:08:52.058Z,994.2
2018-12-22T00:10:02.128Z,994.07
2018-12-22T00:11:11.869Z,994.17
2018-12-22T00:12:21.352Z,994.07
2018-12-22T00:13:31.307Z,994.56
2018-12-22T00:14:41.249Z,994.15
2018-12-22T00:15:50.944Z,994.26
2018-12-22T00:17:00.400Z,994.27
2018-12-22T00:18:10.354Z,993.94
2018-12-22T00:19:20.291Z,994.43
2018-12-22T00:20:30.238Z,994.06
2018-12-22T00:21:40.193Z,993.91
2018-12-22T00:22:49.879Z,993.92
2018-12-22T00:23:59.570Z,994.16
2018-12-22T00:25:09.635Z,994.2
2018-12-22T00:26:19.583Z,993.97
2018-12-22T00:27:29.621Z,994.23
2018-12-22T00:28:41.713Z,994.07
2018-12-22T00:29:51.659Z,994.28
2018-12-22T00:31:01.609Z,994.18
2018-12-22T00:32:11.304Z,994.06
2018-12-22T00:33:21.253Z,994.15
2018-12-22T00:34:31.218Z,994.01
2018-12-22T00:35:40.913Z,994.3
2018-12-22T00:36:50.856Z,994.11
2018-12-22T00:38:00.548Z,994.16
2018-12-22T00:39:10.507Z,994.24
2018-12-22T00:40:20.464Z,994.28
2018-12-22T00:41:30.416Z,994.23
2018-12-22T00:42:40.110Z,994.31
2018-12-22T00:43:49.538Z,994.52
2018-12-22T00:44:59.579Z,994.22
2018-12-22T00:46:09.332Z,994.33
2018-12-22T00:47:19.276Z,994.48
2018-12-22T00:48:28.743Z,994.24
2018-12-22T00:49:38.432Z,994.29
2018-12-22T00:50:48.139Z,994.14
2018-12-22T00:51:58.087Z,994.32
2018-12-22T00:53:07.791Z,994.45
2018-12-22T00:54:18.077Z,994.6
2018-12-22T00:55:27.858Z,994.38
2018-12-22T00:56:37.805Z,994.41
2018-12-22T00:57:47.493Z,994.46
2018-12-22T00:58:57.420Z,994.49
2018-12-22T01:00:07.107Z,994.49
2018-12-22T01:01:18.798Z,994.62
2018-12-22T01:02:28.742Z,994.6
2018-12-22T01:03:38.199Z,994.74
2018-12-22T01:04:48.144Z,994.61
2018-12-22T01:05:58.083Z,994.61
2018-12-22T01:07:08.036Z,994.83
2018-12-22T01:08:17.734Z,994.57
2018-12-22T01:09:27.668Z,994.56
2018-12-22T01:10:37.611Z,994.74
2018-12-22T01:11:47.542Z,994.73
2018-12-22T01:12:57.241Z,994.94
2018-12-22T01:14:06.934Z,994.88
2018-12-22T01:15:16.882Z,994.93
2018-12-22T01:16:26.306Z,994.95
2018-12-22T01:17:36.005Z,994.73
2018-12-22T01:18:45.709Z,995.1
2018-12-22T01:19:55.654Z,995.01
2018-12-22T01:21:05.601Z,995.01
2018-12-22T01:22:15.285Z,994.91
2018-12-22T01:23:24.988Z,995.16
2018-12-22T01:24:34.936Z,995.04
2018-12-22T01:25:44.645Z,995.03
2018-12-22T01:26:54.335Z,995.02
2018-12-22T01:28:04.021Z,995.03
2018-12-22T01:29:13.972Z,995.35
2018-12-22T01:30:23.662Z,995.18
2018-12-22T01:31:33.357Z,995.24
2018-12-22T01:32:43.316Z,995.15
2018-12-22T01:33:53.250Z,995.34
2018-12-22T01:35:03.192Z,995.12
2018-12-22T01:36:13.147Z,995.24
2018-12-22T01:37:23.110Z,995.24
2018-12-22T01:38:33.047Z,995.66
2018-12-22T01:39:42.488Z,995.32
2018-12-22T01:40:52.429Z,996.04
2018-12-22T01:42:02.362Z,995.82
2018-12-22T01:43:12.321Z,995.55
2018-12-22T01:44:22.012Z,995.26
2018-12-22T01:45:31.973Z,995.15
2018-12-22T01:46:41.902Z,995.88
2018-12-22T01:47:51.836Z,995.43
2018-12-22T01:49:01.793Z,995.41
2018-12-22T01:50:11.479Z,995.53
2018-12-22T01:51:21.183Z,995.26
2018-12-22T01:52:31.127Z,995.37
2018-12-22T01:53:41.082Z,995.26
2018-12-22T01:54:51.031Z,995.6
2018-12-22T01:56:00.472Z,995.42
2018-12-22T01:57:10.425Z,995.25
2018-12-22T01:58:20.120Z,995.46
2018-12-22T01:59:29.816Z,995.27
2018-12-22T02:00:39.519Z,995.48
2018-12-22T02:01:49.210Z,995.26
2018-12-22T02:02:58.889Z,995.33
2018-12-22T02:04:08.596Z,995.25
2018-12-22T02:05:18.534Z,995.3
2018-12-22T02:06:28.481Z,995.4
2018-12-22T02:07:38.177Z,995.45
2018-12-22T02:08:48.136Z,995.57
2018-12-22T02:09:57.824Z,995.49
2018-12-22T02:11:07.269Z,996.02
2018-12-22T02:12:17.242Z,995.69
2018-12-22T02:13:26.936Z,995.69
2018-12-22T02:14:36.874Z,995.52
2018-12-22T02:15:46.558Z,995.39
2018-12-22T02:16:56.503Z,995.65
2018-12-22T02:18:06.192Z,995.72
2018-12-22T02:19:15.877Z,995.52
2018-12-22T02:20:25.819Z,995.71
2018-12-22T02:21:35.760Z,995.64
2018-12-22T02:22:45.708Z,995.6
2018-12-22T02:23:55.393Z,995.54
2018-12-22T02:25:05.345Z,995.72
2018-12-22T02:26:15.057Z,995.71
2018-12-22T02:27:24.737Z,995.95
2018-12-22T02:28:34.431Z,995.8
2018-12-22T02:29:44.111Z,995.95
2018-12-22T02:30:53.663Z,995.87
2018-12-22T02:32:03.376Z,995.88
2018-12-22T02:33:12.835Z,995.84
2018-12-22T02:34:22.538Z,995.81
2018-12-22T02:35:32.495Z,995.86
2018-12-22T02:36:42.437Z,996.03
2018-12-22T02:37:52.195Z,995.87
2018-12-22T02:39:01.888Z,995.78
2018-12-22T02:40:11.846Z,995.77
2018-12-22T02:41:21.815Z,995.76
2018-12-22T02:42:31.521Z,995.89
2018-12-22T02:43:41.230Z,995.86
2018-12-22T02:44:50.926Z,996.14
2018-12-22T02:46:00.626Z,995.84
2018-12-22T02:47:10.319Z,996
2018-12-22T02:48:20.016Z,996.3
2018-12-22T02:49:29.481Z,995.91
2018-12-22T02:50:39.202Z,996.08
2018-12-22T02:51:48.925Z,995.87
2018-12-22T02:52:58.970Z,995.71
2018-12-22T02:54:08.661Z,995.75
2018-12-22T02:55:18.355Z,996.2
2018-12-22T02:56:27.558Z,995.93
2018-12-22T02:57:37.498Z,995.79
2018-12-22T02:58:47.450Z,996.09
2018-12-22T03:00:06.314Z,996.41
2018-12-22T03:01:16.249Z,996.04
2018-12-22T03:02:26.197Z,996.01
2018-12-22T03:03:35.904Z,995.93
2018-12-22T03:04:45.841Z,996.26
2018-12-22T03:05:55.792Z,995.85
2018-12-22T03:07:05.751Z,996.14
2018-12-22T03:08:15.463Z,996.23
2018-12-22T03:09:25.533Z,996.18
2018-12-22T03:10:35.289Z,995.93
2018-12-22T03:11:45.303Z,996.2
2018-12-22T03:12:55.249Z,996.08
2018-12-22T03:14:04.945Z,995.75
2018-12-22T03:15:14.661Z,996.51
2018-12-22T03:16:24.618Z,996.06
2018-12-22T03:17:34.565Z,996.3
2018-12-22T03:18:44.628Z,996.11
2018-12-22T03:19:54.566Z,996.16
2018-12-22T03:21:04.051Z,996.18
2018-12-22T03:22:13.960Z,996.14
2018-12-22T03:23:23.915Z,996.18
2018-12-22T03:24:33.702Z,996.18
2018-12-22T03:25:43.658Z,996.39
2018-12-22T03:26:53.602Z,996.54
2018-12-22T03:28:03.293Z,996.42
2018-12-22T03:29:15.597Z,996.54
2018-12-22T03:30:25.904Z,996.27
2018-12-22T03:31:35.889Z,996.34
2018-12-22T03:32:45.927Z,996.41
2018-12-22T03:33:55.936Z,996.23
2018-12-22T03:35:05.627Z,996.44
2018-12-22T03:36:15.587Z,996.67
2018-12-22T03:37:25.277Z,996.3
2018-12-22T03:38:35.238Z,996.39
2018-12-22T03:39:45.189Z,996.52
2018-12-22T03:40:55.130Z,996.52
2018-12-22T03:42:04.819Z,996.51
2018-12-22T03:43:14.513Z,996.5
2018-12-22T03:44:24.200Z,996.53
2018-12-22T03:45:33.877Z,996.61
2018-12-22T03:46:43.341Z,996.46
2018-12-22T03:47:53.288Z,996.62
2018-12-22T03:49:03.000Z,997.11
2018-12-22T03:50:12.939Z,996.67
2018-12-22T03:51:22.895Z,996.47
2018-12-22T03:52:32.949Z,996.56
2018-12-22T03:53:42.880Z,996.6
2018-12-22T03:54:52.832Z,996.88
2018-12-22T03:56:02.534Z,996.71
2018-12-22T03:57:12.257Z,996.7
2018-12-22T03:58:22.207Z,996.62
2018-12-22T03:59:32.146Z,996.87
2018-12-22T04:00:42.086Z,996.88
2018-12-22T04:01:52.045Z,996.58
2018-12-22T04:03:01.767Z,996.73
2018-12-22T04:04:12.511Z,996.78
2018-12-22T04:05:22.491Z,996.64
2018-12-22T04:06:32.296Z,997.21
2018-12-22T04:07:42.238Z,996.92
2018-12-22T04:08:51.673Z,996.69
2018-12-22T04:10:01.621Z,996.79
2018-12-22T04:11:11.070Z,996.79
2018-12-22T04:12:21.016Z,996.73
2018-12-22T04:13:30.962Z,996.7
2018-12-22T04:14:40.419Z,996.56
2018-12-22T04:15:50.367Z,996.61
2018-12-22T04:17:00.323Z,996.71
2018-12-22T04:18:10.263Z,996.79
2018-12-22T04:19:20.214Z,996.62
2018-12-22T04:20:29.914Z,996.71
2018-12-22T04:21:39.864Z,996.77
2018-12-22T04:22:49.913Z,996.67
2018-12-22T04:23:59.616Z,996.82
2018-12-22T04:25:09.568Z,996.73
2018-12-22T04:26:19.527Z,996.73
2018-12-22T04:27:29.240Z,996.82
2018-12-22T04:28:38.670Z,996.68
2018-12-22T04:29:48.356Z,996.87
2018-12-22T04:30:58.299Z,996.73
2018-12-22T04:32:08.240Z,996.79
2018-12-22T04:33:17.945Z,996.9
2018-12-22T04:34:27.898Z,996.81
2018-12-22T04:35:37.842Z,996.91
2018-12-22T04:36:47.807Z,996.95
2018-12-22T04:37:57.759Z,996.85
2018-12-22T04:39:07.450Z,997.28
2018-12-22T04:40:17.146Z,996.99
2018-12-22T04:41:27.104Z,996.72
2018-12-22T04:42:36.796Z,997.01
2018-12-22T04:43:46.794Z,996.87
2018-12-22T04:44:56.728Z,997.05
2018-12-22T04:46:06.158Z,996.92
2018-12-22T04:47:15.919Z,996.99
2018-12-22T04:48:25.867Z,997.06
2018-12-22T04:49:35.818Z,997.12
2018-12-22T04:50:45.776Z,996.96
2018-12-22T04:51:55.700Z,996.9
2018-12-22T04:53:05.745Z,996.84
2018-12-22T04:54:15.211Z,997.09
2018-12-22T04:55:25.146Z,997.02
2018-12-22T04:56:35.097Z,996.99
2018-12-22T04:57:45.051Z,997.19
2018-12-22T04:58:55.085Z,997
2018-12-22T05:00:05.034Z,997.05
2018-12-22T05:01:14.833Z,997.08
2018-12-22T05:02:24.778Z,997.09
2018-12-22T05:03:34.724Z,996.98
2018-12-22T05:04:44.675Z,997.13
2018-12-22T05:05:54.617Z,996.68
2018-12-22T05:07:04.618Z,996.89
2018-12-22T05:08:14.570Z,997
2018-12-22T05:09:24.134Z,997.17
2018-12-22T05:10:34.091Z,997.16
2018-12-22T05:11:44.059Z,997.35
2018-12-22T05:12:54.019Z,997.11
2018-12-22T05:14:03.978Z,997.17
2018-12-22T05:15:13.671Z,997.16
2018-12-22T05:16:23.616Z,997.22
2018-12-22T05:17:33.418Z,997.24
2018-12-22T05:18:43.356Z,997.29
2018-12-22T05:19:53.296Z,997.2
2018-12-22T05:21:03.242Z,997.11
2018-12-22T05:22:13.179Z,996.92
2018-12-22T05:23:23.241Z,997.25
2018-12-22T05:24:33.178Z,997.45
2018-12-22T05:25:42.626Z,997.48
2018-12-22T05:26:52.564Z,997.4
2018-12-22T05:28:02.252Z,997.25
2018-12-22T05:29:11.958Z,997.18
2018-12-22T05:30:21.654Z,997.36
2018-12-22T05:31:31.579Z,997.46
2018-12-22T05:32:41.510Z,997.32
2018-12-22T05:33:51.639Z,997.33
2018-12-22T05:35:01.350Z,997.31
2018-12-22T05:36:11.312Z,997.42
2018-12-22T05:37:21.002Z,997.37
2018-12-22T05:38:30.966Z,997.46
2018-12-22T05:39:40.902Z,997.4
2018-12-22T05:40:50.605Z,997.28
2018-12-22T05:42:00.296Z,997.31
2018-12-22T05:43:10.241Z,997.34
2018-12-22T05:44:19.940Z,997.39
2018-12-22T05:45:29.869Z,997.38
2018-12-22T05:46:39.819Z,997.43
2018-12-22T05:47:49.765Z,997.34
2018-12-22T05:48:59.465Z,997.33
2018-12-22T05:50:09.156Z,997.26
2018-12-22T05:51:19.101Z,997.37
2018-12-22T05:52:29.039Z,997.47
2018-12-22T05:53:38.979Z,997.33
2018-12-22T05:54:48.665Z,997.54
2018-12-22T05:55:58.349Z,997.38
2018-12-22T05:57:08.281Z,997.38
2018-12-22T05:58:18.223Z,997.47
2018-12-22T05:59:28.177Z,997.36
2018-12-22T06:00:38.112Z,997.75
2018-12-22T06:01:48.066Z,997.34
2018-12-22T06:02:57.765Z,997.46
2018-12-22T06:04:07.712Z,997.45
2018-12-22T06:05:17.656Z,997.46
2018-12-22T06:06:27.591Z,997.58
2018-12-22T06:07:37.048Z,997.48
2018-12-22T06:08:46.739Z,997.44
2018-12-22T06:09:56.423Z,997.5
2018-12-22T06:11:06.367Z,997.77
2018-12-22T06:12:15.809Z,997.62
2018-12-22T06:13:25.489Z,997.68
2018-12-22T06:14:35.181Z,997.44
2018-12-22T06:15:44.613Z,997.45
2018-12-22T06:16:54.295Z,997.36
2018-12-22T06:18:04.258Z,997.48
2018-12-22T06:19:13.955Z,997.46
2018-12-22T06:20:23.642Z,997.58
2018-12-22T06:21:33.078Z,997.42
2018-12-22T06:22:42.510Z,997.49
2018-12-22T06:23:52.195Z,997.47
2018-12-22T06:25:02.142Z,997.53
2018-12-22T06:26:12.093Z,997.5
2018-12-22T06:27:22.031Z,997.51
2018-12-22T06:28:31.964Z,997.53
2018-12-22T06:29:41.911Z,997.57
2018-12-22T06:30:51.862Z,997.67
2018-12-22T06:32:01.563Z,997.53
2018-12-22T06:33:11.257Z,997.55
2018-12-22T06:34:21.207Z,997.55
2018-12-22T06:35:31.145Z,997.49
2018-12-22T06:36:41.081Z,997.64
2018-12-22T06:37:50.547Z,997.57
2018-12-22T06:39:00.545Z,997.54
2018-12-22T06:40:10.493Z,997.6
2018-12-22T06:41:20.434Z,997.65
2018-12-22T06:42:30.370Z,997.6
2018-12-22T06:43:40.312Z,997.7
2018-12-22T06:44:50.268Z,997.56
2018-12-22T06:46:00.209Z,997.68
2018-12-22T06:47:10.180Z,997.68
2018-12-22T06:48:19.867Z,997.7
2018-12-22T06:49:29.565Z,997.63
2018-12-22T06:50:39.500Z,997.66
2018-12-22T06:51:49.458Z,997.71
2018-12-22T06:52:59.407Z,997.72
2018-12-22T06:54:08.870Z,997.72
2018-12-22T06:55:18.797Z,997.87
2018-12-22T06:56:28.491Z,997.8
2018-12-22T06:57:38.194Z,997.82
2018-12-22T06:58:47.635Z,997.91
2018-12-22T06:59:57.578Z,997.87
2018-12-22T07:01:07.513Z,997.93
2018-12-22T07:02:17.491Z,997.87
2018-12-22T07:03:27.176Z,997.87
2018-12-22T07:04:37.158Z,998.01
2018-12-22T07:05:46.851Z,998.02
2018-12-22T07:06:56.793Z,997.76
2018-12-22T07:08:06.495Z,997.98
2018-12-22T07:09:16.447Z,998.07
2018-12-22T07:10:26.394Z,998.01
2018-12-22T07:11:36.327Z,997.95
2018-12-22T07:12:46.261Z,998.04
2018-12-22T07:13:55.965Z,998.05
2018-12-22T07:15:05.667Z,998.29
2018-12-22T07:16:15.097Z,998.1
2018-12-22T07:17:25.045Z,998.17
2018-12-22T07:18:34.979Z,998.11
2018-12-22T07:19:44.663Z,998.34
2018-12-22T07:20:54.115Z,998.11
2018-12-22T07:22:04.081Z,998.1
2018-12-22T07:23:14.036Z,998.07
2018-12-22T07:24:23.483Z,998.18
2018-12-22T07:25:33.426Z,998.27
2018-12-22T07:26:43.387Z,998.26
2018-12-22T07:27:53.082Z,998.26
2018-12-22T07:29:02.857Z,998.13
2018-12-22T07:30:12.808Z,998.24
2018-12-22T07:31:31.372Z,998.19
2018-12-22T07:32:41.060Z,998.49
2018-12-22T07:33:59.396Z,998.21
2018-12-22T07:35:09.362Z,998.29
2018-12-22T07:36:19.074Z,998.28
2018-12-22T07:37:30.304Z,998.19
2018-12-22T07:38:39.758Z,998.35
2018-12-22T07:39:49.448Z,998.21
2018-12-22T07:40:58.913Z,998.28
2018-12-22T07:42:08.935Z,998.44
2018-12-22T07:43:18.903Z,998.16
2018-12-22T07:44:28.848Z,998.44
2018-12-22T07:45:38.288Z,998.3
2018-12-22T07:46:48.224Z,998.43
2018-12-22T07:47:58.156Z,998.31
2018-12-22T07:49:07.597Z,998.32
2018-12-22T07:50:17.307Z,998.38
2018-12-22T07:51:27.254Z,998.29
2018-12-22T07:52:36.943Z,998.36
2018-12-22T07:53:54.352Z,998.15
2018-12-22T07:55:04.057Z,998.37
2018-12-22T07:56:13.483Z,998.42
2018-12-22T07:57:23.172Z,998.34
2018-12-22T07:58:33.426Z,998.4
2018-12-22T07:59:43.370Z,998.5
2018-12-22T08:00:53.331Z,998.34
2018-12-22T08:02:03.040Z,998.3
2018-12-22T08:03:13.896Z,998.41
2018-12-22T08:04:23.697Z,998.5
2018-12-22T08:05:38.549Z,998.51
2018-12-22T08:06:48.604Z,998.36
2018-12-22T08:07:58.316Z,998.28
2018-12-22T08:09:08.008Z,998.36
2018-12-22T08:10:17.706Z,998.36
2018-12-22T08:11:27.661Z,998.47
2018-12-22T08:12:37.626Z,998.81
2018-12-22T08:13:47.564Z,998.52
2018-12-22T08:14:57.259Z,998.45
2018-12-22T08:16:06.958Z,998.59
2018-12-22T08:17:16.914Z,998.49
2018-12-22T08:18:26.609Z,998.47
2018-12-22T08:19:36.327Z,998.59
2018-12-22T08:20:45.764Z,998.59
2018-12-22T08:21:55.489Z,998.52
2018-12-22T08:23:05.190Z,998.55
2018-12-22T08:24:15.152Z,998.44
2018-12-22T08:25:24.853Z,998.45
2018-12-22T08:26:34.799Z,998.45
2018-12-22T08:27:44.230Z,998.53
2018-12-22T08:28:54.199Z,998.69
2018-12-22T08:30:03.653Z,998.63
2018-12-22T08:31:13.597Z,998.62
2018-12-22T08:32:23.692Z,998.65
2018-12-22T08:33:33.649Z,998.73
2018-12-22T08:34:43.363Z,998.68
2018-12-22T08:35:53.332Z,998.73
2018-12-22T08:37:03.278Z,998.81
2018-12-22T08:38:13.233Z,998.81
2018-12-22T08:39:23.176Z,998.85
2018-12-22T08:40:32.866Z,998.81
2018-12-22T08:41:42.574Z,998.87
2018-12-22T08:42:52.264Z,998.84
2018-12-22T08:44:01.964Z,998.94
2018-12-22T08:45:11.891Z,998.91
2018-12-22T08:46:21.582Z,998.97
2018-12-22T08:47:31.278Z,999.01
2018-12-22T08:48:41.226Z,999.08
2018-12-22T08:49:51.188Z,999.12
2018-12-22T08:51:09.465Z,999.12
2018-12-22T08:52:18.657Z,999.19
2018-12-22T08:53:28.349Z,999.14
2018-12-22T08:54:38.044Z,999.28
2018-12-22T08:55:47.723Z,999.13
2018-12-22T08:56:57.688Z,999.32
2018-12-22T08:58:07.473Z,999.22
2018-12-22T08:59:17.412Z,999.27
2018-12-22T09:00:27.383Z,999.3
2018-12-22T09:01:37.218Z,999.35
2018-12-22T09:02:47.832Z,999.29
2018-12-22T09:03:57.614Z,999.41
2018-12-22T09:05:07.299Z,999.41
2018-12-22T09:06:17.248Z,999.42
2018-12-22T09:07:26.960Z,999.45
2018-12-22T09:08:36.671Z,999.47
2018-12-22T09:09:46.448Z,999.35
2018-12-22T09:10:56.401Z,999.31
2018-12-22T09:12:06.103Z,999.43
2018-12-22T09:13:20.762Z,999.53
2018-12-22T09:14:30.894Z,999.46
2018-12-22T09:15:40.839Z,999.45
2018-12-22T09:16:50.778Z,999.42
2018-12-22T09:18:00.473Z,999.52
2018-12-22T09:19:10.431Z,999.39
2018-12-22T09:20:20.398Z,999.42
2018-12-22T09:21:32.256Z,999.52
2018-12-22T09:22:41.721Z,999.57
2018-12-22T09:23:51.731Z,999.52
2018-12-22T09:25:01.716Z,999.55
2018-12-22T09:26:11.417Z,999.5
2018-12-22T09:27:21.125Z,999.57
2018-12-22T09:28:31.042Z,999.44
2018-12-22T09:29:41.003Z,999.46
2018-12-22T09:30:50.716Z,999.57
2018-12-22T09:32:08.295Z,999.57
2018-12-22T09:33:18.012Z,999.47
2018-12-22T09:34:27.976Z,999.51
2018-12-22T09:35:37.917Z,999.48
2018-12-22T09:36:47.358Z,999.47
2018-12-22T09:37:57.088Z,999.55
2018-12-22T09:39:07.039Z,999.7
2018-12-22T09:40:16.500Z,999.56
2018-12-22T09:41:26.201Z,999.54
2018-12-22T09:42:35.904Z,999.53
2018-12-22T09:43:45.421Z,999.54
2018-12-22T09:44:55.118Z,999.58
2018-12-22T09:46:05.214Z,999.66
2018-12-22T09:47:15.162Z,999.61
2018-12-22T09:48:24.866Z,999.66
2018-12-22T09:49:34.818Z,999.67
2018-12-22T09:50:44.534Z,999.6
2018-12-22T09:51:54.229Z,999.58
2018-12-22T09:53:04.191Z,999.64
2018-12-22T09:54:15.031Z,999.62
2018-12-22T09:55:24.989Z,999.58
2018-12-22T09:56:34.984Z,999.65
2018-12-22T09:57:44.957Z,999.59
2018-12-22T09:58:54.683Z,999.6
2018-12-22T10:00:04.381Z,999.62
2018-12-22T10:01:14.065Z,999.62
2018-12-22T10:02:23.491Z,999.7
2018-12-22T10:03:33.445Z,999.66
2018-12-22T10:04:43.386Z,999.77
2018-12-22T10:05:53.337Z,999.67
2018-12-22T10:07:03.289Z,999.75
2018-12-22T10:08:13.214Z,999.76
2018-12-22T10:09:23.219Z,999.91
2018-12-22T10:10:32.660Z,999.83
2018-12-22T10:11:42.603Z,999.83
2018-12-22T10:12:52.305Z,999.79
2018-12-22T10:14:02.247Z,999.82
2018-12-22T10:15:12.310Z,999.83
2018-12-22T10:16:22.008Z,999.87
2018-12-22T10:17:31.983Z,999.87
2018-12-22T10:18:41.922Z,999.89
2018-12-22T10:19:51.892Z,999.92
2018-12-22T10:21:01.333Z,1000.03
2018-12-22T10:22:11.278Z,1000
2018-12-22T10:23:23.477Z,999.94
2018-12-22T10:24:33.171Z,999.94
2018-12-22T10:25:43.121Z,999.95
2018-12-22T10:26:53.276Z,1000.01
2018-12-22T10:28:02.732Z,1000.06
2018-12-22T10:29:12.675Z,1000.05
2018-12-22T10:30:22.130Z,1000.17
2018-12-22T10:31:31.803Z,1000.12
2018-12-22T10:32:41.516Z,1000.24
2018-12-22T10:33:51.458Z,1000.25
2018-12-22T10:35:00.910Z,1000.4
2018-12-22T10:36:10.598Z,1000.47
2018-12-22T10:37:20.531Z,1000.5
2018-12-22T10:38:30.255Z,1000.43
2018-12-22T10:39:39.703Z,1000.43
2018-12-22T10:40:49.253Z,1000.42
2018-12-22T10:41:59.227Z,1000.59
2018-12-22T10:43:09.219Z,1000.56
2018-12-22T10:44:18.657Z,1000.53
2018-12-22T10:45:28.619Z,1000.54
2018-12-22T10:46:38.321Z,1000.56
2018-12-22T10:47:48.280Z,1000.58
2018-12-22T10:48:58.007Z,1000.61
2018-12-22T10:50:07.699Z,1000.57
2018-12-22T10:51:24.164Z,1000.81
2018-12-22T10:52:34.390Z,1000.74
2018-12-22T10:53:44.105Z,1000.76
2018-12-22T10:54:54.053Z,1000.74
2018-12-22T10:56:04.015Z,1000.77
2018-12-22T10:57:13.706Z,1000.78
2018-12-22T10:58:23.661Z,1000.83
2018-12-22T10:59:33.605Z,1000.85
2018-12-22T11:00:43.567Z,1000.87
2018-12-22T11:01:53.633Z,1000.81
2018-12-22T11:03:03.338Z,1000.89
2018-12-22T11:04:13.017Z,1000.86
2018-12-22T11:05:22.713Z,1000.9
2018-12-22T11:06:32.660Z,1000.95
2018-12-22T11:07:42.586Z,1000.99
2018-12-22T11:08:52.308Z,1000.98
2018-12-22T11:10:01.997Z,1001.02
2018-12-22T11:11:11.702Z,1001.04
2018-12-22T11:12:21.437Z,1001.03
2018-12-22T11:13:31.386Z,1001.13
2018-12-22T11:14:41.069Z,1001.17
2018-12-22T11:15:50.763Z,1001.03
2018-12-22T11:17:00.721Z,1001.11
2018-12-22T11:18:10.670Z,1001.1
2018-12-22T11:19:20.618Z,1001.12
2018-12-22T11:20:30.568Z,1001.14
2018-12-22T11:21:40.512Z,1001.09
2018-12-22T11:22:50.207Z,1001.32
2018-12-22T11:23:59.906Z,1001.24
2018-12-22T11:25:10.136Z,1001.29
2018-12-22T11:26:20.077Z,1001.39
2018-12-22T11:27:30.018Z,1001.29
2018-12-22T11:28:39.701Z,1001.36
2018-12-22T11:29:49.638Z,1001.41
2018-12-22T11:30:59.574Z,1001.39
2018-12-22T11:32:09.523Z,1001.41
2018-12-22T11:33:19.482Z,1001.42
2018-12-22T11:34:29.173Z,1001.5
2018-12-22T11:35:39.131Z,1001.47
2018-12-22T11:36:48.820Z,1001.44
2018-12-22T11:37:58.510Z,1001.56
2018-12-22T11:39:08.526Z,1001.52
2018-12-22T11:40:18.552Z,1001.49
2018-12-22T11:41:28.240Z,1001.56
2018-12-22T11:42:37.929Z,1001.52
2018-12-22T11:43:55.247Z,1001.56
2018-12-22T11:45:05.198Z,1001.56
2018-12-22T11:46:14.898Z,1001.63
2018-12-22T11:47:24.393Z,1001.63
2018-12-22T11:48:34.344Z,1001.7
2018-12-22T11:49:44.286Z,1001.67
2018-12-22T11:50:54.336Z,1001.75
2018-12-22T11:52:04.033Z,1001.72
2018-12-22T11:53:13.736Z,1001.82
2018-12-22T11:54:23.674Z,1001.66
2018-12-22T11:55:33.133Z,1001.8
2018-12-22T11:56:43.079Z,1001.83
2018-12-22T11:57:53.022Z,1001.83
2018-12-22T11:59:02.973Z,1001.76
2018-12-22T12:00:12.920Z,1001.82
2018-12-22T12:01:22.870Z,1001.92
2018-12-22T12:02:32.578Z,1001.83
2018-12-22T12:03:42.530Z,1001.9
2018-12-22T12:04:52.368Z,1002.04
2018-12-22T12:06:02.317Z,1001.99
2018-12-22T12:07:12.003Z,1001.99
2018-12-22T12:08:21.697Z,1002.04
2018-12-22T12:09:31.419Z,1002.15
2018-12-22T12:10:41.129Z,1002.18
2018-12-22T12:11:51.073Z,1002.19
2018-12-22T12:13:00.759Z,1002.16
2018-12-22T12:14:10.315Z,1002.23
2018-12-22T12:15:19.755Z,1002.3
2018-12-22T12:16:29.706Z,1002.29
2018-12-22T12:17:39.677Z,1002.37
2018-12-22T12:18:49.371Z,1002.48
2018-12-22T12:19:59.314Z,1002.41
2018-12-22T12:21:09.002Z,1002.36
2018-12-22T12:22:18.436Z,1002.55
2018-12-22T12:23:28.367Z,1002.48
2018-12-22T12:24:38.056Z,1002.56
2018-12-22T12:25:47.765Z,1002.58
2018-12-22T12:26:57.458Z,1002.54
2018-12-22T12:28:07.406Z,1002.56
2018-12-22T12:29:17.104Z,1002.6
2018-12-22T12:30:27.057Z,1002.59
2018-12-22T12:31:36.748Z,1002.5
2018-12-22T12:32:54.611Z,1002.56
2018-12-22T12:34:04.069Z,1002.57
2018-12-22T12:35:13.764Z,1002.65
2018-12-22T12:36:23.462Z,1002.77
2018-12-22T12:37:33.536Z,1002.93
2018-12-22T12:38:42.723Z,1002.66
2018-12-22T12:39:52.696Z,1002.77
2018-12-22T12:41:02.633Z,1002.8
2018-12-22T12:42:12.612Z,1002.82
2018-12-22T12:43:22.799Z,1002.81
2018-12-22T12:44:32.748Z,1002.8
2018-12-22T12:45:42.857Z,1002.83
2018-12-22T12:46:52.804Z,1002.87
2018-12-22T12:48:02.755Z,1002.96
2018-12-22T12:49:12.449Z,1002.93
2018-12-22T12:50:22.420Z,1003.05
2018-12-22T12:51:32.367Z,1003.01
2018-12-22T12:52:42.318Z,1002.95
2018-12-22T12:53:51.756Z,1003.05
2018-12-22T12:55:01.734Z,1003.03
2018-12-22T12:56:13.722Z,1003.1
2018-12-22T12:57:23.692Z,1003.13
2018-12-22T12:58:34.541Z,1003.22
2018-12-22T12:59:44.510Z,1003.16
2018-12-22T13:00:53.956Z,1003.27
2018-12-22T13:02:03.915Z,1003.29
2018-12-22T13:03:13.874Z,1003.34
2018-12-22T13:04:23.826Z,1003.31
2018-12-22T13:05:33.794Z,1003.37
2018-12-22T13:06:43.756Z,1003.37
2018-12-22T13:07:53.466Z,1003.41
2018-12-22T13:09:03.446Z,1003.5
2018-12-22T13:10:16.345Z,1003.55
2018-12-22T13:11:26.051Z,1003.52
2018-12-22T13:12:35.988Z,1003.56
2018-12-22T13:13:46.057Z,1003.58
2018-12-22T13:14:55.753Z,1003.56
2018-12-22T13:16:05.449Z,1003.68
2018-12-22T13:17:15.158Z,1003.6
2018-12-22T13:18:25.107Z,1003.65
2018-12-22T13:19:34.787Z,1003.67
2018-12-22T13:20:44.492Z,1003.68
2018-12-22T13:21:54.294Z,1003.67
2018-12-22T13:23:04.243Z,1003.71
2018-12-22T13:24:14.188Z,1003.73
2018-12-22T13:25:26.216Z,1003.78
2018-12-22T13:26:36.828Z,1003.71
2018-12-22T13:27:47.073Z,1003.83
2018-12-22T13:28:56.521Z,1003.89
2018-12-22T13:30:06.497Z,1003.91
2018-12-22T13:31:16.579Z,1004.01
2018-12-22T13:32:26.029Z,1004.01
2018-12-22T13:33:36.232Z,1004.06
2018-12-22T13:34:46.551Z,1004.05
2018-12-22T13:35:56.493Z,1004.03
2018-12-22T13:37:06.426Z,1004.07
2018-12-22T13:38:16.368Z,1004.06
2018-12-22T13:39:26.315Z,1004.1
2018-12-22T13:40:36.325Z,1004.12
2018-12-22T13:41:46.015Z,1004.15
2018-12-22T13:42:55.966Z,1004.23
2018-12-22T13:44:05.925Z,1004.34
2018-12-22T13:45:15.875Z,1004.38
2018-12-22T13:46:25.585Z,1004.34
2018-12-22T13:47:35.034Z,1004.33
2018-12-22T13:48:46.338Z,1004.41
2018-12-22T13:49:57.431Z,1004.44
2018-12-22T13:51:07.971Z,1004.46
2018-12-22T13:52:18.722Z,1004.51
2018-12-22T13:53:30.293Z,1004.53
2018-12-22T13:54:40.245Z,1004.53
2018-12-22T13:55:49.954Z,1004.56
2018-12-22T13:56:59.906Z,1004.57
2018-12-22T13:58:09.616Z,1004.63
2018-12-22T13:59:19.328Z,1004.64
2018-12-22T14:00:28.800Z,1004.65
2018-12-22T14:01:38.501Z,1004.8
2018-12-22T14:02:47.696Z,1004.81
2018-12-22T14:03:57.482Z,1004.81
2018-12-22T14:05:07.182Z,1004.86
2018-12-22T14:06:17.125Z,1004.91
2018-12-22T14:07:27.130Z,1004.93
2018-12-22T14:08:36.844Z,1004.94
2018-12-22T14:09:46.776Z,1004.92
2018-12-22T14:10:56.728Z,1004.95
2018-12-22T14:12:06.691Z,1004.94
2018-12-22T14:13:16.382Z,1004.98
2018-12-22T14:14:26.321Z,1004.99
2018-12-22T14:15:36.047Z,1005.02
2018-12-22T14:16:46.008Z,1005.01
2018-12-22T14:17:55.810Z,1005.09
2018-12-22T14:19:05.766Z,1005.09
2018-12-22T14:20:15.467Z,1005.13
2018-12-22T14:21:25.428Z,1005.12
2018-12-22T14:22:35.377Z,1005.13
2018-12-22T14:23:45.068Z,1005.2
2018-12-22T14:24:54.891Z,1005.19
2018-12-22T14:26:04.875Z,1005.26
2018-12-22T14:27:14.582Z,1005.22
2018-12-22T14:28:24.534Z,1005.22